Time;durP1;ratioP1;P1;durP2;ratioP2;P2;SDS_P1;SDS_P2;PMS_P1;PMS_P2;Temp;Humidity;BMP_temperature;BMP_pressure;BME280_temperature;BME280_humidity;BME280_pressure;Samples;Min_cycle;Max_cycle;Signal;HPM_P1;HPM_P2
2023/06/23 00:00:43;;;;;;;13.68;9.68;;;;;;;19.63;100.00;99335.97;5159455;27;20050;-59
2023/06/23 00:03:09;;;;;;;15.60;9.98;;;;;;;19.40;100.00;99337.50;5159907;27;20051;-57
2023/06/23 00:05:35;;;;;;;11.02;9.38;;;;;;;19.48;100.00;99338.97;5159508;27;20046;-55
2023/06/23 00:08:01;;;;;;;17.27;10.52;;;;;;;19.42;100.00;99339.84;5159807;27;20072;-54
2023/06/23 00:10:28;;;;;;;13.15;9.15;;;;;;;19.30;100.00;99348.78;5159557;27;20058;-58
2023/06/23 00:12:54;;;;;;;18.02;9.13;;;;;;;19.38;100.00;99347.47;5159488;27;20046;-52
2023/06/23 00:15:22;;;;;;;13.48;8.70;;;;;;;19.31;100.00;99353.91;5159576;27;20134;-55
2023/06/23 00:17:49;;;;;;;12.48;9.23;;;;;;;19.10;100.00;99352.22;5159185;27;20328;-51
2023/06/23 00:20:16;;;;;;;14.68;13.25;;;;;;;19.18;100.00;99345.38;5159541;27;20047;-58
2023/06/23 00:22:43;;;;;;;16.08;9.20;;;;;;;19.14;100.00;99347.41;5159070;27;20051;-52
2023/06/23 00:25:11;;;;;;;11.38;9.07;;;;;;;18.99;100.00;99357.94;5159658;27;20057;-57
2023/06/23 00:27:38;;;;;;;12.77;9.27;;;;;;;19.06;100.00;99362.63;5159154;27;20332;-52
2023/06/23 00:30:05;;;;;;;10.35;8.65;;;;;;;19.12;100.00;99365.69;5159436;27;20141;-59
2023/06/23 00:32:31;;;;;;;13.05;9.27;;;;;;;19.10;100.00;99365.34;5159161;27;20147;-56
2023/06/23 00:34:57;;;;;;;11.23;8.73;;;;;;;19.00;100.00;99361.50;5159144;27;20117;-57
2023/06/23 00:37:23;;;;;;;11.73;7.95;;;;;;;19.00;100.00;99373.41;5159092;27;20319;-59
2023/06/23 00:39:49;;;;;;;12.95;9.35;;;;;;;18.83;100.00;99384.72;5159041;27;20320;-58
2023/06/23 00:42:15;;;;;;;13.45;12.15;;;;;;;18.95;100.00;99384.19;5159101;27;20426;-55
2023/06/23 00:44:41;;;;;;;12.93;9.02;;;;;;;18.83;100.00;99382.75;5158883;27;20416;-53
2023/06/23 00:47:08;;;;;;;13.93;8.48;;;;;;;18.84;100.00;99389.09;5159048;27;20050;-55
2023/06/23 00:49:35;;;;;;;12.65;8.15;;;;;;;18.75;100.00;99384.03;5158724;27;20076;-55
2023/06/23 00:52:02;;;;;;;9.82;7.85;;;;;;;18.55;100.00;99397.69;5158891;27;20050;-55
2023/06/23 00:54:28;;;;;;;15.18;11.68;;;;;;;18.53;100.00;99400.91;5158767;27;20141;-56
2023/06/23 00:56:58;;;;;;;12.15;8.57;;;;;;;18.62;100.00;99397.63;5158939;27;20047;-60
2023/06/23 00:59:25;;;;;;;15.23;8.30;;;;;;;18.48;100.00;99404.13;5158565;27;20051;-52
2023/06/23 01:01:51;;;;;;;13.30;7.72;;;;;;;18.55;100.00;99406.03;5158987;27;20486;-55
2023/06/23 01:04:17;;;;;;;11.45;8.23;;;;;;;18.41;100.00;99398.66;5158407;27;20096;-54
2023/06/23 01:06:48;;;;;;;17.63;7.60;;;;;;;18.42;100.00;99400.22;5158640;27;20471;-57
2023/06/23 01:09:25;;;;;;;12.70;11.50;;;;;;;18.38;100.00;99409.78;5158650;27;20137;-59
2023/06/23 01:11:56;;;;;;;11.82;8.00;;;;;;;18.31;100.00;99396.78;5158284;27;20407;-52
2023/06/23 01:14:26;;;;;;;12.48;8.15;;;;;;;18.36;100.00;99404.66;5158689;27;20047;-52
2023/06/23 01:16:59;;;;;;;12.45;7.97;;;;;;;18.33;100.00;99397.16;5158684;27;20051;-52
2023/06/23 01:19:47;;;;;;;11.75;8.38;;;;;;;18.31;100.00;99397.56;5158562;27;20046;-56
2023/06/23 01:22:21;;;;;;;9.93;8.05;;;;;;;18.10;100.00;99392.22;5158366;27;20054;-57
2023/06/23 01:25:01;;;;;;;9.93;7.07;;;;;;;18.23;100.00;99392.50;5158361;27;20141;-56
2023/06/23 01:27:41;;;;;;;15.23;8.50;;;;;;;18.14;100.00;99400.50;5158442;27;20134;-53
2023/06/23 01:30:11;;;;;;;11.55;8.07;;;;;;;18.15;100.00;99399.28;5158264;27;20050;-51
2023/06/23 01:32:43;;;;;;;13.77;8.10;;;;;;;18.17;100.00;99399.69;5158369;27;20050;-55
2023/06/23 01:35:19;;;;;;;10.05;7.55;;;;;;;18.16;100.00;99400.88;5157921;27;20050;-55
2023/06/23 01:37:49;;;;;;;11.60;7.45;;;;;;;18.13;100.00;99404.47;5158315;27;20396;-58
2023/06/23 01:40:17;;;;;;;10.30;7.75;;;;;;;17.97;100.00;99418.88;5157847;27;20066;-56
2023/06/23 01:42:49;;;;;;;13.10;8.25;;;;;;;18.01;100.00;99414.09;5158173;27;20061;-60
2023/06/23 01:45:17;;;;;;;8.55;6.70;;;;;;;18.05;100.00;99403.75;5158137;27;20319;-57
2023/06/23 01:47:48;;;;;;;11.13;6.82;;;;;;;18.00;100.00;99399.44;5164283;27;20052;-56
2023/06/23 01:50:17;;;;;;;12.52;11.20;;;;;;;17.97;100.00;99402.22;5165105;27;20054;-59
2023/06/23 01:52:44;;;;;;;12.77;7.68;;;;;;;17.88;100.00;99395.16;5164782;27;20362;-57
2023/06/23 01:55:12;;;;;;;12.82;7.95;;;;;;;17.92;100.00;99394.34;5165103;27;20046;-57
2023/06/23 01:57:39;;;;;;;11.07;8.35;;;;;;;17.92;100.00;99406.22;5164706;27;20051;-57
2023/06/23 02:00:11;;;;;;;10.90;7.22;;;;;;;17.87;100.00;99407.47;5164796;27;20424;-55
2023/06/23 02:02:39;;;;;;;13.27;7.80;;;;;;;17.78;100.00;99404.34;5164595;27;20099;-53
2023/06/23 02:05:06;;;;;;;11.77;8.40;;;;;;;17.84;100.00;99411.03;5164923;27;20221;-55
2023/06/23 02:07:34;;;;;;;13.55;7.82;;;;;;;17.80;100.00;99415.03;5164677;27;20051;-58
2023/06/23 02:10:02;;;;;;;13.13;7.63;;;;;;;17.68;100.00;99409.94;5164691;27;20138;-59
2023/06/23 02:12:29;;;;;;;11.13;7.95;;;;;;;17.53;100.00;99398.97;5164731;27;20331;-58
2023/06/23 02:14:55;;;;;;;15.48;7.75;;;;;;;17.50;100.00;99390.69;5164616;27;20057;-57
2023/06/23 02:17:22;;;;;;;11.63;7.90;;;;;;;17.58;100.00;99381.88;5164783;27;20047;-60
2023/06/23 02:19:51;;;;;;;9.85;7.70;;;;;;;17.55;100.00;99382.69;5164295;27;20062;-57
2023/06/23 02:22:20;;;;;;;9.35;7.40;;;;;;;17.60;100.00;99367.63;5164779;27;20103;-55
2023/06/23 02:24:47;;;;;;;10.52;7.95;;;;;;;17.90;100.00;99380.91;5164298;27;20050;-52
2023/06/23 02:27:13;;;;;;;9.32;6.95;;;;;;;18.23;100.00;99398.03;5164757;27;20127;-55
2023/06/23 02:29:41;;;;;;;10.80;7.15;;;;;;;18.35;100.00;99401.06;5164344;27;20412;-57
2023/06/23 02:32:08;;;;;;;9.25;6.82;;;;;;;18.07;100.00;99402.13;5164583;27;20073;-55
2023/06/23 02:34:35;;;;;;;13.48;7.88;;;;;;;17.85;100.00;99400.72;5164483;27;20165;-56
2023/06/23 02:37:04;;;;;;;10.88;7.40;;;;;;;18.01;100.00;99400.22;5164288;27;20111;-57
2023/06/23 02:39:33;;;;;;;10.60;9.50;;;;;;;18.22;100.00;99405.56;5164202;27;20046;-55
2023/06/23 02:42:00;;;;;;;13.75;6.90;;;;;;;18.53;100.00;99397.34;5164122;27;20046;-51
2023/06/23 02:44:30;;;;;;;8.43;6.80;;;;;;;18.82;100.00;99361.72;5164322;27;20199;-55
2023/06/23 02:46:58;;;;;;;10.93;8.85;;;;;;;19.05;100.00;99311.78;5164115;27;20047;-60
2023/06/23 02:49:28;;;;;;;10.15;9.10;;;;;;;19.21;100.00;99225.03;5164508;27;20420;-52
2023/06/23 02:51:58;;;;;;;7.03;5.78;;;;;;;19.55;100.00;99174.00;5163915;27;20430;-58
2023/06/23 02:54:26;;;;;;;15.45;6.13;;;;;;;19.86;100.00;99040.31;5164459;27;20046;-59
2023/06/23 02:56:56;;;;;;;11.23;6.07;;;;;;;20.07;100.00;98845.06;5164169;27;20051;-55
2023/06/23 02:59:24;;;;;;;13.07;7.07;;;;;;;19.87;100.00;98800.66;5160688;27;20055;-56
2023/06/23 03:01:53;;;;;;;7.85;5.32;;;;;;;20.52;100.00;98680.00;5160997;27;20051;-52
2023/06/23 03:04:19;;;;;;;8.45;5.43;;;;;;;20.68;100.00;98498.88;5160361;27;20431;-59
2023/06/23 03:06:46;;;;;;;7.65;6.30;;;;;;;20.92;100.00;98403.72;5160709;27;20047;-58
2023/06/23 03:09:12;;;;;;;8.05;5.75;;;;;;;21.26;100.00;98276.66;5160450;27;20055;-59
2023/06/23 03:11:39;;;;;;;6.97;5.55;;;;;;;21.46;100.00;98161.97;5160615;27;20138;-58
2023/06/23 03:14:05;;;;;;;8.35;5.30;;;;;;;21.69;100.00;98111.16;5160239;27;20051;-55
2023/06/23 03:16:38;;;;;;;9.93;6.18;;;;;;;21.86;100.00;98033.50;5160735;27;20142;-60
2023/06/23 03:19:16;;;;;;;9.40;6.03;;;;;;;21.76;100.00;98029.97;5160170;27;20051;-58
2023/06/23 03:21:46;;;;;;;7.88;6.00;;;;;;;21.67;100.00;98060.66;5160374;27;20332;-56
2023/06/23 03:24:14;;;;;;;6.10;5.50;;;;;;;21.57;100.00;98015.28;5160371;27;20064;-60
2023/06/23 03:26:45;;;;;;;12.23;6.18;;;;;;;21.61;100.00;98056.94;5160272;27;20191;-60
2023/06/23 03:29:12;;;;;;;8.43;5.43;;;;;;;21.94;100.00;97997.69;5160357;27;20047;-56
2023/06/23 03:31:42;;;;;;;7.63;6.15;;;;;;;21.77;100.00;98000.81;5160039;27;20074;-58
2023/06/23 03:34:09;;;;;;;10.98;5.88;;;;;;;22.11;100.00;97975.75;5160288;27;20138;-55
2023/06/23 03:36:37;;;;;;;10.82;7.88;;;;;;;22.28;100.00;97965.78;5159948;27;20047;-60
2023/06/23 03:39:09;;;;;;;10.00;6.18;;;;;;;22.11;100.00;97947.84;5160304;27;20056;-54
2023/06/23 03:41:36;;;;;;;9.52;5.32;;;;;;;21.98;100.00;97971.16;5159870;27;20057;-52
2023/06/23 03:44:09;;;;;;;7.78;5.97;;;;;;;22.16;100.00;97959.19;5160205;27;20404;-53
2023/06/23 03:46:44;;;;;;;11.68;5.82;;;;;;;22.14;100.00;97946.91;5160018;27;20130;-54
2023/06/23 03:49:12;;;;;;;8.30;5.40;;;;;;;22.26;100.00;97948.75;5159898;27;20106;-58
2023/06/23 03:51:39;;;;;;;11.05;5.55;;;;;;;22.61;100.00;97934.25;5159840;27;20153;-56
2023/06/23 03:54:07;;;;;;;8.52;5.60;;;;;;;22.54;100.00;97938.16;5159905;27;20308;-52
2023/06/23 03:56:35;;;;;;;7.63;5.65;;;;;;;22.77;100.00;97937.38;5159987;27;20080;-60
2023/06/23 03:59:03;;;;;;;10.90;7.72;;;;;;;22.85;100.00;97948.94;5159485;27;20061;-56
2023/06/23 04:01:31;;;;;;;7.90;5.97;;;;;;;23.28;100.00;97957.16;5160267;27;20406;-54
2023/06/23 04:03:58;;;;;;;7.65;5.68;;;;;;;23.38;100.00;97972.59;5159451;27;20142;-57
2023/06/23 04:06:26;;;;;;;11.70;6.22;;;;;;;22.84;100.00;97946.66;5159559;27;20086;-59
2023/06/23 04:08:54;;;;;;;9.02;7.80;;;;;;;22.95;100.00;97938.50;5158796;27;20065;-54
2023/06/23 04:11:21;;;;;;;12.23;5.75;;;;;;;23.33;100.00;97956.50;5159474;27;20133;-54
2023/06/23 04:13:49;;;;;;;8.88;5.63;;;;;;;23.81;100.00;97998.31;5159534;27;20075;-55
2023/06/23 04:16:17;;;;;;;8.82;5.78;;;;;;;24.16;100.00;98046.00;5159434;27;20138;-57
2023/06/23 04:18:44;;;;;;;11.88;6.40;;;;;;;24.14;100.00;98059.69;5159397;27;20383;-57
2023/06/23 04:21:13;;;;;;;8.25;5.50;;;;;;;23.63;100.00;97993.66;5159283;27;20105;-58
2023/06/23 04:23:42;;;;;;;8.45;5.85;;;;;;;24.30;100.00;98064.03;5159366;27;20512;-60
2023/06/23 04:26:11;;;;;;;9.57;5.93;;;;;;;24.03;100.00;98068.69;5159042;27;20082;-59
2023/06/23 04:28:41;;;;;;;6.95;5.63;;;;;;;24.27;100.00;98093.75;5159453;27;20130;-58
2023/06/23 04:31:09;;;;;;;7.97;7.28;;;;;;;24.45;100.00;98131.25;5158977;27;20061;-58
2023/06/23 04:33:37;;;;;;;8.88;7.85;;;;;;;24.22;100.00;98116.84;5159232;27;20391;-53
2023/06/23 04:36:11;;;;;;;8.00;5.88;;;;;;;24.04;100.00;98120.59;5158833;27;20416;-53
2023/06/23 04:38:40;;;;;;;7.68;6.63;;;;;;;23.82;100.00;98042.59;5159322;27;20209;-53
2023/06/23 04:41:12;;;;;;;10.20;8.15;;;;;;;23.97;100.00;98051.00;5159129;27;20047;-56
2023/06/23 04:43:43;;;;;;;13.43;6.43;;;;;;;24.24;100.00;98088.34;5158555;27;20450;-52
2023/06/23 04:46:15;;;;;;;12.30;6.18;;;;;;;24.42;100.00;98128.19;5159234;27;20149;-59
2023/06/23 04:48:48;;;;;;;11.48;7.53;;;;;;;25.05;100.00;98175.50;5158797;27;20050;-56
2023/06/23 04:51:16;;;;;;;11.80;5.97;;;;;;;25.27;100.00;98228.38;5159117;27;20051;-56
2023/06/23 04:53:48;;;;;;;9.73;7.85;;;;;;;25.74;100.00;98276.22;5158506;27;20061;-56
2023/06/23 04:56:18;;;;;;;9.35;6.40;;;;;;;25.48;100.00;98298.56;5158795;27;20103;-55
2023/06/23 04:58:48;;;;;;;10.35;7.32;;;;;;;26.05;100.00;98320.56;5158738;27;20046;-57
2023/06/23 05:01:16;;;;;;;8.80;7.90;;;;;;;25.97;100.00;98382.00;5158653;27;20065;-54
2023/06/23 05:03:44;;;;;;;9.00;7.90;;;;;;;25.81;100.00;98369.25;5158667;27;20323;-56
2023/06/23 05:06:12;;;;;;;10.50;7.75;;;;;;;25.57;100.00;98304.06;5158433;27;20141;-60
2023/06/23 05:08:40;;;;;;;9.63;7.30;;;;;;;25.82;100.00;98350.38;5158618;27;20079;-52
2023/06/23 05:11:10;;;;;;;10.70;8.90;;;;;;;25.64;100.00;98353.41;5158274;27;20320;-56
2023/06/23 05:13:36;;;;;;;8.40;7.60;;;;;;;25.81;100.00;98354.44;5158534;27;20116;-55
2023/06/23 05:16:04;;;;;;;9.02;7.93;;;;;;;26.29;100.00;98407.44;5158099;27;20061;-52
2023/06/23 05:18:31;;;;;;;10.48;7.60;;;;;;;26.49;100.00;98441.22;5158573;27;20042;-57
2023/06/23 05:21:00;;;;;;;8.38;7.38;;;;;;;26.87;100.00;98481.56;5156837;27;20047;-58
2023/06/23 05:23:27;;;;;;;7.72;7.03;;;;;;;26.92;100.00;98477.25;5157939;27;20054;-57
2023/06/23 05:25:56;;;;;;;8.63;7.82;;;;;;;27.39;100.00;98506.19;5158537;27;20043;-58
2023/06/23 05:28:24;;;;;;;11.00;7.20;;;;;;;27.32;100.00;98521.47;5158091;27;20122;-59
2023/06/23 05:30:52;;;;;;;7.70;7.07;;;;;;;27.43;100.00;98532.88;5158084;27;20415;-53
2023/06/23 05:33:19;;;;;;;8.52;7.63;;;;;;;27.65;100.00;98542.81;5158193;27;20055;-53
2023/06/23 05:35:46;;;;;;;8.63;7.40;;;;;;;27.94;100.00;98555.16;5158380;27;20047;-59
2023/06/23 05:38:17;;;;;;;8.73;6.70;;;;;;;28.30;100.00;98571.34;5157877;27;20141;-56
2023/06/23 05:40:43;;;;;;;11.40;7.88;;;;;;;28.70;100.00;98580.09;5158141;27;20135;-52
2023/06/23 05:43:09;;;;;;;9.50;7.35;;;;;;;28.81;100.00;98592.22;5157651;27;20457;-59
2023/06/23 05:45:35;;;;;;;7.72;6.90;;;;;;;28.73;100.00;98604.50;5157995;27;20046;-56
2023/06/23 05:48:09;;;;;;;11.32;7.15;;;;;;;28.79;100.00;98608.09;5157658;27;20102;-60
2023/06/23 05:50:38;;;;;;;9.10;8.20;;;;;;;28.59;100.00;98598.50;5157368;27;20137;-54
2023/06/23 05:53:07;;;;;;;7.97;7.20;;;;;;;28.79;100.00;98602.44;5157551;27;20050;-54
2023/06/23 05:55:38;;;;;;;12.07;7.55;;;;;;;28.38;100.00;98602.66;5157486;27;20095;-55
2023/06/23 05:58:08;;;;;;;8.95;7.63;;;;;;;28.25;100.00;98572.06;5158055;27;20086;-53
2023/06/23 06:00:38;;;;;;;9.60;7.90;;;;;;;28.35;100.00;98590.31;5157092;27;20133;-53
2023/06/23 06:03:09;;;;;;;9.65;7.07;;;;;;;28.04;100.00;98588.28;5157498;27;20058;-54
2023/06/23 06:05:38;;;;;;;9.18;8.25;;;;;;;28.53;100.00;98594.09;5157194;27;20043;-54
2023/06/23 06:08:08;;;;;;;9.43;7.90;;;;;;;28.71;100.00;98596.50;5157580;27;20050;-53
2023/06/23 06:10:37;;;;;;;10.18;6.70;;;;;;;29.04;100.00;98595.97;5157045;27;20046;-56
2023/06/23 06:13:05;;;;;;;9.75;7.57;;;;;;;29.53;100.00;98612.88;5156607;27;20055;-59
2023/06/23 06:15:33;;;;;;;7.80;7.00;;;;;;;29.70;100.00;98658.91;5157261;27;20043;-61
2023/06/23 06:18:05;;;;;;;8.75;7.82;;;;;;;29.84;100.00;98665.63;5157317;27;20422;-59
2023/06/23 06:20:33;;;;;;;9.95;8.18;;;;;;;30.32;100.00;98661.09;5157034;27;20043;-56
2023/06/23 06:23:00;;;;;;;11.80;7.40;;;;;;;30.77;100.00;98678.13;5156808;27;20141;-62
2023/06/23 06:25:28;;;;;;;10.77;7.70;;;;;;;29.94;100.00;98664.09;5157021;27;20171;-55
2023/06/23 06:27:56;;;;;;;9.30;7.32;;;;;;;29.97;100.00;98663.09;5156468;27;20057;-52
2023/06/23 06:30:23;;;;;;;9.95;7.47;;;;;;;30.43;100.00;98661.13;5157121;27;20134;-56
2023/06/23 06:32:52;;;;;;;9.63;7.82;;;;;;;30.71;100.00;98678.84;5157905;27;20419;-58
2023/06/23 06:35:20;;;;;;;9.35;7.85;;;;;;;31.04;100.00;98685.81;5160771;27;20367;-58
2023/06/23 06:37:48;;;;;;;10.32;7.75;;;;;;;31.04;100.00;98699.19;5160611;27;20331;-55
2023/06/23 06:40:21;;;;;;;9.05;7.95;;;;;;;31.31;100.00;98706.06;5160526;27;20050;-59
2023/06/23 06:42:48;;;;;;;8.10;6.63;;;;;;;30.78;100.00;98707.94;5160813;27;20050;-58
2023/06/23 06:45:14;;;;;;;8.23;7.40;;;;;;;30.92;100.00;98704.06;5160378;27;20536;-53
2023/06/23 06:47:43;;;;;;;8.02;7.22;;;;;;;30.62;100.00;98686.81;5160307;27;20054;-57
2023/06/23 06:50:12;;;;;;;9.98;7.20;;;;;;;31.70;100.00;98703.16;5160043;27;20133;-50
2023/06/23 06:52:40;;;;;;;10.35;7.00;;;;;;;31.40;100.00;98700.94;5160172;27;20181;-55
2023/06/23 06:55:09;;;;;;;7.28;6.20;;;;;;;31.23;100.00;98711.50;5159766;27;20051;-55
2023/06/23 06:57:35;;;;;;;7.40;6.70;;;;;;;31.04;100.00;98699.94;5160202;27;20137;-52
2023/06/23 07:00:03;;;;;;;8.88;6.53;;;;;;;30.05;100.00;98688.78;5160015;27;20124;-55
2023/06/23 07:02:32;;;;;;;7.30;6.10;;;;;;;29.83;100.00;98686.69;5159862;27;20054;-61
2023/06/23 07:04:59;;;;;;;10.68;6.95;;;;;;;30.19;100.00;98698.34;5159757;27;20051;-56
2023/06/23 07:07:25;;;;;;;7.45;6.70;;;;;;;30.01;100.00;98660.78;5159499;27;20335;-53
2023/06/23 07:09:51;;;;;;;8.45;7.60;;;;;;;29.82;100.00;98671.00;5159734;27;20055;-52
2023/06/23 07:12:18;;;;;;;8.63;6.75;;;;;;;29.27;100.00;98650.47;5159627;27;20042;-58
2023/06/23 07:14:43;;;;;;;6.20;5.68;;;;;;;29.94;100.00;98638.66;5159730;27;20065;-59
2023/06/23 07:17:09;;;;;;;8.43;6.40;;;;;;;30.67;100.00;98678.34;5159375;27;20138;-56
2023/06/23 07:19:37;;;;;;;7.75;5.88;;;;;;;31.39;100.00;98690.91;5159744;27;20129;-55
2023/06/23 07:22:04;;;;;;;7.50;6.18;;;;;;;31.24;95.54;98713.03;5159197;27;20376;-55
2023/06/23 07:24:30;;;;;;;9.77;6.38;;;;;;;30.64;96.59;98710.50;5159288;27;20046;-59
2023/06/23 07:26:56;;;;;;;5.85;5.28;;;;;;;30.53;100.00;98698.41;5159048;27;20137;-58
2023/06/23 07:29:22;;;;;;;6.28;5.10;;;;;;;30.25;100.00;98704.78;5159293;27;20309;-57
2023/06/23 07:31:48;;;;;;;7.03;5.10;;;;;;;29.89;99.22;98709.28;5158883;27;20419;-54
2023/06/23 07:34:14;;;;;;;8.63;5.35;;;;;;;30.40;100.00;98696.09;5159317;27;20058;-50
2023/06/23 07:36:40;;;;;;;9.07;5.20;;;;;;;31.34;96.09;98703.00;5158935;27;20437;-55
2023/06/23 07:39:08;;;;;;;7.80;5.20;;;;;;;31.64;88.93;98716.56;5158981;27;20138;-56
2023/06/23 07:41:34;;;;;;;7.38;4.80;;;;;;;31.58;85.12;98712.97;5159302;27;20332;-59
2023/06/23 07:44:00;;;;;;;6.47;4.88;;;;;;;31.56;83.34;98709.91;5158290;27;20142;-61
2023/06/23 07:46:26;;;;;;;6.13;5.05;;;;;;;31.75;88.36;98716.50;5159622;27;20372;-55
2023/06/23 07:48:52;;;;;;;4.78;4.20;;;;;;;31.73;75.33;98733.28;5159244;27;20384;-57
2023/06/23 07:51:18;;;;;;;8.00;4.50;;;;;;;31.37;72.34;98738.78;5159026;27;20046;-53
2023/06/23 07:53:45;;;;;;;5.90;4.85;;;;;;;31.31;76.15;98728.72;5159207;27;20095;-51
2023/06/23 07:56:12;;;;;;;6.68;5.00;;;;;;;31.51;77.74;98717.13;5159510;27;20187;-51
2023/06/23 07:58:38;;;;;;;7.53;5.30;;;;;;;31.58;80.81;98712.97;5159215;27;20050;-58
2023/06/23 08:01:04;;;;;;;6.57;5.47;;;;;;;31.70;78.88;98720.16;5159318;27;20150;-59
2023/06/23 08:03:30;;;;;;;7.93;4.80;;;;;;;31.67;82.28;98701.34;5159403;27;20050;-57
2023/06/23 08:05:56;;;;;;;10.07;5.05;;;;;;;31.79;80.78;98713.41;5159248;27;20057;-55
2023/06/23 08:08:21;;;;;;;5.05;4.57;;;;;;;31.83;76.58;98714.69;5159202;27;20046;-52
2023/06/23 08:10:48;;;;;;;5.63;4.88;;;;;;;32.23;73.87;98723.00;5159055;27;20312;-56
2023/06/23 08:13:14;;;;;;;9.75;4.68;;;;;;;32.68;73.08;98722.72;5159052;27;20077;-52
2023/06/23 08:15:41;;;;;;;8.32;5.00;;;;;;;33.16;75.49;98716.38;5158807;27;20420;-54
2023/06/23 08:18:07;;;;;;;13.48;4.60;;;;;;;33.08;74.51;98715.41;5159202;27;20043;-56
2023/06/23 08:20:33;;;;;;;6.50;4.50;;;;;;;32.50;72.55;98721.31;5158812;27;20353;-55
2023/06/23 08:22:59;;;;;;;5.80;4.47;;;;;;;32.62;76.34;98714.25;5159257;27;20065;-53
2023/06/23 08:25:25;;;;;;;8.63;5.35;;;;;;;33.78;71.02;98712.84;5158515;27;20138;-56
2023/06/23 08:27:52;;;;;;;9.05;3.90;;;;;;;33.70;65.85;98714.78;5158717;27;20051;-61
2023/06/23 08:30:26;;;;;;;3.72;3.42;;;;;;;33.73;64.24;98711.63;5158943;27;20047;-54
2023/06/23 08:32:52;;;;;;;4.13;3.72;;;;;;;33.88;63.32;98710.41;5158667;27;20055;-54
2023/06/23 08:35:18;;;;;;;4.25;3.85;;;;;;;33.21;64.91;98707.03;5158798;27;20070;-56
2023/06/23 08:37:44;;;;;;;4.68;4.22;;;;;;;33.40;66.28;98703.47;5158140;27;20479;-55
2023/06/23 08:40:11;;;;;;;5.13;3.78;;;;;;;33.08;65.55;98708.97;5158723;27;20050;-52
2023/06/23 08:42:37;;;;;;;5.10;4.20;;;;;;;32.84;68.03;98718.97;5158476;27;20169;-56
2023/06/23 08:45:07;;;;;;;4.75;4.35;;;;;;;32.77;70.03;98711.03;5158662;27;20138;-54
2023/06/23 08:47:37;;;;;;;5.72;4.60;;;;;;;32.79;69.12;98703.53;5158155;27;20364;-56
2023/06/23 08:50:04;;;;;;;5.07;4.68;;;;;;;33.22;68.17;98708.59;5158699;27;20134;-57
2023/06/23 08:52:30;;;;;;;12.43;8.05;;;;;;;33.55;68.77;98703.84;5158425;27;20071;-60
2023/06/23 08:54:56;;;;;;;10.85;6.95;;;;;;;33.06;70.63;98709.53;5157927;27;20591;-57
2023/06/23 08:57:23;;;;;;;5.43;4.82;;;;;;;33.87;66.70;98706.81;5158214;27;20070;-54
2023/06/23 08:59:49;;;;;;;6.00;4.50;;;;;;;33.90;66.15;98702.88;5157788;27;20141;-52
2023/06/23 09:02:16;;;;;;;4.90;4.40;;;;;;;33.79;65.87;98702.25;5158230;27;20050;-55
2023/06/23 09:04:42;;;;;;;8.45;4.90;;;;;;;32.56;70.73;98693.66;5157938;27;20078;-54
2023/06/23 09:07:08;;;;;;;8.40;4.60;;;;;;;32.17;69.43;98697.53;5158284;27;20042;-57
2023/06/23 09:09:34;;;;;;;6.80;5.03;;;;;;;32.71;71.12;98690.44;5158013;27;20126;-54
2023/06/23 09:12:00;;;;;;;5.78;4.72;;;;;;;31.86;72.08;98687.38;5158379;27;20304;-52
2023/06/23 09:14:29;;;;;;;10.68;4.45;;;;;;;32.66;69.57;98689.19;5158055;27;20058;-52
2023/06/23 09:16:57;;;;;;;5.03;4.53;;;;;;;33.14;68.53;98692.66;5158527;27;20376;-58
2023/06/23 09:19:23;;;;;;;6.38;3.92;;;;;;;33.25;67.38;98684.75;5157817;27;20078;-57
2023/06/23 09:21:50;;;;;;;7.32;4.28;;;;;;;32.64;66.15;98680.44;5158002;27;20362;-60
2023/06/23 09:24:16;;;;;;;5.30;3.63;;;;;;;33.11;64.37;98688.03;5157932;27;20404;-54
2023/06/23 09:26:48;;;;;;;5.07;3.78;;;;;;;33.88;64.02;98699.03;5157872;27;20093;-53
2023/06/23 09:29:17;;;;;;;5.18;4.00;;;;;;;33.82;63.81;98692.66;5158127;27;20210;-55
2023/06/23 09:31:43;;;;;;;4.20;3.83;;;;;;;33.74;64.00;98689.66;5157359;27;20042;-58
2023/06/23 09:34:18;;;;;;;5.20;4.00;;;;;;;33.19;62.70;98700.31;5157666;27;20086;-54
2023/06/23 09:36:45;;;;;;;6.13;4.30;;;;;;;31.71;67.70;98692.59;5157274;27;20138;-52
2023/06/23 09:39:14;;;;;;;4.22;3.90;;;;;;;33.17;64.79;98700.88;5157851;27;20187;-53
2023/06/23 09:41:44;;;;;;;4.32;3.92;;;;;;;33.19;63.90;98703.16;5157373;27;20051;-54
2023/06/23 09:44:12;;;;;;;6.85;3.70;;;;;;;32.61;65.76;98707.03;5158189;27;20065;-61
2023/06/23 09:46:38;;;;;;;8.68;4.10;;;;;;;32.48;64.51;98712.53;5157726;27;20178;-51
2023/06/23 09:49:07;;;;;;;4.15;3.75;;;;;;;32.65;63.63;98718.84;5157451;27;20193;-57
2023/06/23 09:51:36;;;;;;;7.75;3.50;;;;;;;32.81;60.62;98712.28;5157390;27;20125;-53
2023/06/23 09:54:03;;;;;;;3.78;3.47;;;;;;;32.98;61.19;98714.22;5157747;27;20191;-56
2023/06/23 09:56:29;;;;;;;5.65;3.58;;;;;;;33.44;61.27;98718.16;5157695;27;20107;-59
2023/06/23 09:58:55;;;;;;;5.13;3.83;;;;;;;33.72;59.46;98726.38;5158260;27;20043;-51
2023/06/23 10:01:22;;;;;;;5.32;3.47;;;;;;;33.61;60.10;98720.81;5157632;27;20385;-51
2023/06/23 10:03:50;;;;;;;6.43;3.60;;;;;;;33.52;60.16;98719.09;5157391;27;20085;-58
2023/06/23 10:06:25;;;;;;;3.72;3.42;;;;;;;32.65;59.92;98716.03;5157079;27;20372;-58
2023/06/23 10:08:55;;;;;;;6.13;3.60;;;;;;;32.39;61.70;98716.47;5160231;27;20332;-52
2023/06/23 10:11:29;;;;;;;4.85;2.92;;;;;;;32.97;59.74;98709.84;5161057;27;20085;-56
2023/06/23 10:13:56;;;;;;;5.50;3.55;;;;;;;32.80;60.29;98707.91;5161084;27;20057;-57
2023/06/23 10:16:23;;;;;;;4.97;4.53;;;;;;;33.14;61.97;98692.66;5161127;27;20054;-53
2023/06/23 10:18:49;;;;;;;5.47;3.22;;;;;;;33.54;60.06;98710.84;5161343;27;20418;-58
2023/06/23 10:21:15;;;;;;;4.75;3.35;;;;;;;33.27;58.93;98699.22;5160883;27;20110;-54
2023/06/23 10:23:41;;;;;;;3.47;3.17;;;;;;;33.06;58.19;98706.69;5161115;27;20118;-59
2023/06/23 10:26:08;;;;;;;6.72;3.40;;;;;;;33.32;58.38;98711.81;5160891;27;20376;-57
2023/06/23 10:28:36;;;;;;;7.25;4.68;;;;;;;33.33;56.24;98718.28;5161051;27;20472;-56
2023/06/23 10:31:05;;;;;;;5.15;3.20;;;;;;;33.87;57.40;98715.34;5160804;27;20329;-56
2023/06/23 10:33:36;;;;;;;8.70;3.33;;;;;;;33.57;57.12;98717.53;5161093;27;20050;-60
2023/06/23 10:36:06;;;;;;;5.30;3.38;;;;;;;33.06;58.09;98715.19;5160401;27;20145;-54
2023/06/23 10:38:33;;;;;;;6.00;3.30;;;;;;;33.37;58.49;98719.50;5160762;27;20127;-59
2023/06/23 10:41:00;;;;;;;3.47;3.17;;;;;;;32.47;60.15;98711.00;5160831;27;20047;-57
2023/06/23 10:43:30;;;;;;;5.18;3.92;;;;;;;32.62;59.93;98716.31;5160521;27;20187;-58
2023/06/23 10:45:57;;;;;;;7.63;5.18;;;;;;;32.98;62.09;98705.72;5160582;27;20053;-55
2023/06/23 10:48:24;;;;;;;5.35;3.30;;;;;;;32.51;61.80;98702.97;5160479;27;20157;-57
2023/06/23 10:50:52;;;;;;;5.05;3.00;;;;;;;32.11;62.31;98703.22;5160599;27;20053;-60
2023/06/23 10:53:21;;;;;;;4.38;3.10;;;;;;;32.63;60.87;98707.28;5160122;27;20047;-56
2023/06/23 10:55:48;;;;;;;4.00;3.58;;;;;;;32.72;60.91;98697.66;5160671;27;20085;-54
2023/06/23 10:58:16;;;;;;;4.50;3.30;;;;;;;31.46;62.44;98695.25;5160070;27;20095;-55
2023/06/23 11:00:57;;;;;;;5.18;3.33;;;;;;;31.98;62.28;98700.19;5160688;27;20395;-55
2023/06/23 11:03:31;;;;;;;10.70;3.10;;;;;;;31.59;64.50;98703.97;5160349;27;20472;-60
2023/06/23 11:05:58;;;;;;;5.45;3.20;;;;;;;31.37;63.59;98716.13;5159960;27;20429;-54
2023/06/23 11:08:31;;;;;;;7.82;3.17;;;;;;;31.28;63.38;98710.72;5160126;27;20050;-57
2023/06/23 11:10:59;;;;;;;5.33;3.40;;;;;;;30.87;62.86;98716.97;5160177;27;20099;-55
2023/06/23 11:13:31;;;;;;;5.65;2.90;;;;;;;30.02;65.70;98704.72;5160041;27;20050;-55
2023/06/23 11:15:58;;;;;;;3.78;3.25;;;;;;;29.99;66.01;98693.66;5159910;27;20047;-56
2023/06/23 11:18:26;;;;;;;6.60;3.08;;;;;;;29.96;65.50;98695.47;5159564;27;20046;-57
2023/06/23 11:20:55;;;;;;;3.55;2.97;;;;;;;30.00;62.71;98687.50;5159146;27;20149;-58
2023/06/23 11:23:21;;;;;;;5.18;3.30;;;;;;;30.05;64.98;98690.84;5159843;27;20169;-53
2023/06/23 11:25:48;;;;;;;3.20;2.90;;;;;;;30.19;64.70;98685.00;5159768;27;20047;-57
2023/06/23 11:28:33;;;;;;;5.70;2.90;;;;;;;29.62;64.32;98685.31;5159650;27;20051;-58